sensor_id;sensor_type;location;lat;lon;timestamp;P1;durP1;ratioP1;P2;durP2;ratioP2
34960;SDS011;30789;52.030;7.110;2023-01-28T00:02:06;15.68;;;10.02;;
34960;SDS011;30789;52.030;7.110;2023-01-28T00:04:33;15.82;;;10.10;;
34960;SDS011;30789;52.030;7.110;2023-01-28T00:07:00;14.15;;;9.45;;
34960;SDS011;30789;52.030;7.110;2023-01-28T00:09:26;16.35;;;9.68;;
34960;SDS011;30789;52.030;7.110;2023-01-28T00:11:52;16.55;;;10.65;;
34960;SDS011;30789;52.030;7.110;2023-01-28T00:14:19;15.52;;;9.40;;
34960;SDS011;30789;52.030;7.110;2023-01-28T00:16:45;16.30;;;10.13;;
34960;SDS011;30789;52.030;7.110;2023-01-28T00:19:11;14.93;;;9.38;;
34960;SDS011;30789;52.030;7.110;2023-01-28T00:21:39;13.73;;;9.63;;
34960;SDS011;30789;52.030;7.110;2023-01-28T00:24:05;15.35;;;9.88;;
34960;SDS011;30789;52.030;7.110;2023-01-28T00:26:33;17.90;;;10.07;;
34960;SDS011;30789;52.030;7.110;2023-01-28T00:29:00;14.27;;;10.07;;
34960;SDS011;30789;52.030;7.110;2023-01-28T00:31:26;13.57;;;9.95;;
34960;SDS011;30789;52.030;7.110;2023-01-28T00:33:53;16.17;;;9.82;;
34960;SDS011;30789;52.030;7.110;2023-01-28T00:36:20;18.10;;;10.48;;
34960;SDS011;30789;52.030;7.110;2023-01-28T00:38:52;12.40;;;9.15;;
34960;SDS011;30789;52.030;7.110;2023-01-28T00:41:18;17.10;;;10.50;;
34960;SDS011;30789;52.030;7.110;2023-01-28T00:43:46;16.63;;;11.00;;
34960;SDS011;30789;52.030;7.110;2023-01-28T00:46:12;16.05;;;10.02;;
34960;SDS011;30789;52.030;7.110;2023-01-28T00:48:39;14.90;;;10.43;;
34960;SDS011;30789;52.030;7.110;2023-01-28T00:51:06;15.85;;;9.38;;
34960;SDS011;30789;52.030;7.110;2023-01-28T00:53:32;15.23;;;9.43;;
34960;SDS011;30789;52.030;7.110;2023-01-28T00:56:01;16.73;;;9.75;;
34960;SDS011;30789;52.030;7.110;2023-01-28T00:58:28;16.75;;;10.27;;
34960;SDS011;30789;52.030;7.110;2023-01-28T01:00:54;18.40;;;10.77;;
34960;SDS011;30789;52.030;7.110;2023-01-28T01:03:20;17.88;;;10.82;;
34960;SDS011;30789;52.030;7.110;2023-01-28T01:05:46;18.00;;;10.73;;
34960;SDS011;30789;52.030;7.110;2023-01-28T01:08:13;18.38;;;11.38;;
34960;SDS011;30789;52.030;7.110;2023-01-28T01:10:39;17.70;;;11.07;;
34960;SDS011;30789;52.030;7.110;2023-01-28T01:13:07;16.10;;;9.95;;
34960;SDS011;30789;52.030;7.110;2023-01-28T01:15:34;20.15;;;10.65;;
34960;SDS011;30789;52.030;7.110;2023-01-28T01:18:00;18.63;;;11.20;;
34960;SDS011;30789;52.030;7.110;2023-01-28T01:20:27;20.13;;;11.98;;
34960;SDS011;30789;52.030;7.110;2023-01-28T01:22:55;18.85;;;10.40;;
34960;SDS011;30789;52.030;7.110;2023-01-28T01:25:21;17.30;;;10.40;;
34960;SDS011;30789;52.030;7.110;2023-01-28T01:27:48;17.20;;;11.10;;
34960;SDS011;30789;52.030;7.110;2023-01-28T01:30:16;14.60;;;9.88;;
34960;SDS011;30789;52.030;7.110;2023-01-28T01:32:42;16.48;;;10.07;;
34960;SDS011;30789;52.030;7.110;2023-01-28T01:35:09;15.27;;;10.15;;
34960;SDS011;30789;52.030;7.110;2023-01-28T01:37:35;19.27;;;10.27;;
34960;SDS011;30789;52.030;7.110;2023-01-28T01:40:02;18.92;;;10.63;;
34960;SDS011;30789;52.030;7.110;2023-01-28T01:42:29;17.52;;;11.20;;
34960;SDS011;30789;52.030;7.110;2023-01-28T01:44:56;17.33;;;10.32;;
34960;SDS011;30789;52.030;7.110;2023-01-28T01:47:25;18.23;;;11.30;;
34960;SDS011;30789;52.030;7.110;2023-01-28T01:49:52;19.67;;;11.40;;
34960;SDS011;30789;52.030;7.110;2023-01-28T01:52:19;16.63;;;10.23;;
34960;SDS011;30789;52.030;7.110;2023-01-28T01:54:48;17.65;;;9.88;;
34960;SDS011;30789;52.030;7.110;2023-01-28T01:57:21;16.25;;;10.05;;
34960;SDS011;30789;52.030;7.110;2023-01-28T01:59:49;18.55;;;11.10;;
34960;SDS011;30789;52.030;7.110;2023-01-28T02:02:15;17.10;;;10.10;;
34960;SDS011;30789;52.030;7.110;2023-01-28T02:04:43;18.23;;;10.70;;
34960;SDS011;30789;52.030;7.110;2023-01-28T02:07:11;17.20;;;10.13;;
34960;SDS011;30789;52.030;7.110;2023-01-28T02:09:38;15.90;;;10.23;;
34960;SDS011;30789;52.030;7.110;2023-01-28T02:12:07;16.42;;;10.55;;
34960;SDS011;30789;52.030;7.110;2023-01-28T02:14:34;16.30;;;10.57;;
34960;SDS011;30789;52.030;7.110;2023-01-28T02:17:02;18.08;;;10.52;;
34960;SDS011;30789;52.030;7.110;2023-01-28T02:19:36;21.30;;;10.73;;
34960;SDS011;30789;52.030;7.110;2023-01-28T02:22:06;16.45;;;10.85;;
34960;SDS011;30789;52.030;7.110;2023-01-28T02:24:50;17.45;;;10.93;;
34960;SDS011;30789;52.030;7.110;2023-01-28T02:27:20;16.95;;;9.50;;
34960;SDS011;30789;52.030;7.110;2023-01-28T02:29:51;17.23;;;11.18;;
34960;SDS011;30789;52.030;7.110;2023-01-28T02:32:21;15.93;;;10.25;;
34960;SDS011;30789;52.030;7.110;2023-01-28T02:34:50;18.52;;;10.73;;
34960;SDS011;30789;52.030;7.110;2023-01-28T02:37:19;19.25;;;11.68;;
34960;SDS011;30789;52.030;7.110;2023-01-28T02:39:47;18.08;;;10.63;;
34960;SDS011;30789;52.030;7.110;2023-01-28T02:42:14;19.52;;;11.30;;
34960;SDS011;30789;52.030;7.110;2023-01-28T02:44:42;16.90;;;10.15;;
34960;SDS011;30789;52.030;7.110;2023-01-28T02:47:10;15.00;;;9.18;;
34960;SDS011;30789;52.030;7.110;2023-01-28T02:49:55;18.70;;;10.95;;
34960;SDS011;30789;52.030;7.110;2023-01-28T02:52:27;17.70;;;9.98;;
34960;SDS011;30789;52.030;7.110;2023-01-28T02:55:10;16.17;;;10.13;;
34960;SDS011;30789;52.030;7.110;2023-01-28T02:57:40;15.25;;;9.60;;
34960;SDS011;30789;52.030;7.110;2023-01-28T03:00:09;15.82;;;10.07;;
34960;SDS011;30789;52.030;7.110;2023-01-28T03:02:40;16.42;;;9.30;;
34960;SDS011;30789;52.030;7.110;2023-01-28T03:05:09;17.23;;;10.30;;
34960;SDS011;30789;52.030;7.110;2023-01-28T03:07:37;20.15;;;11.07;;
34960;SDS011;30789;52.030;7.110;2023-01-28T03:10:04;14.30;;;9.07;;
34960;SDS011;30789;52.030;7.110;2023-01-28T03:12:31;14.15;;;9.02;;
34960;SDS011;30789;52.030;7.110;2023-01-28T03:15:16;15.38;;;10.13;;
34960;SDS011;30789;52.030;7.110;2023-01-28T03:18:03;14.48;;;9.13;;
34960;SDS011;30789;52.030;7.110;2023-01-28T03:20:51;13.25;;;9.35;;
34960;SDS011;30789;52.030;7.110;2023-01-28T03:23:36;12.80;;;7.65;;
34960;SDS011;30789;52.030;7.110;2023-01-28T03:26:21;15.77;;;9.32;;
34960;SDS011;30789;52.030;7.110;2023-01-28T03:29:07;13.30;;;8.75;;
34960;SDS011;30789;52.030;7.110;2023-01-28T03:31:52;17.23;;;9.30;;
34960;SDS011;30789;52.030;7.110;2023-01-28T03:34:38;15.73;;;9.48;;
34960;SDS011;30789;52.030;7.110;2023-01-28T03:37:22;14.93;;;8.75;;
34960;SDS011;30789;52.030;7.110;2023-01-28T03:39:50;13.48;;;8.95;;
34960;SDS011;30789;52.030;7.110;2023-01-28T03:42:16;13.52;;;8.80;;
34960;SDS011;30789;52.030;7.110;2023-01-28T03:44:43;14.65;;;9.10;;
34960;SDS011;30789;52.030;7.110;2023-01-28T03:47:19;13.07;;;8.60;;
34960;SDS011;30789;52.030;7.110;2023-01-28T03:49:49;13.88;;;8.25;;
34960;SDS011;30789;52.030;7.110;2023-01-28T03:52:16;15.48;;;8.90;;
34960;SDS011;30789;52.030;7.110;2023-01-28T03:54:43;17.38;;;10.38;;
34960;SDS011;30789;52.030;7.110;2023-01-28T03:57:11;12.60;;;8.57;;
34960;SDS011;30789;52.030;7.110;2023-01-28T03:59:38;15.68;;;8.20;;
34960;SDS011;30789;52.030;7.110;2023-01-28T04:02:04;18.02;;;9.40;;
34960;SDS011;30789;52.030;7.110;2023-01-28T04:04:30;14.63;;;8.40;;
34960;SDS011;30789;52.030;7.110;2023-01-28T04:06:58;14.65;;;8.60;;
34960;SDS011;30789;52.030;7.110;2023-01-28T04:09:25;14.13;;;8.13;;
34960;SDS011;30789;52.030;7.110;2023-01-28T04:11:51;12.18;;;8.55;;
34960;SDS011;30789;52.030;7.110;2023-01-28T04:14:17;15.18;;;8.40;;
34960;SDS011;30789;52.030;7.110;2023-01-28T04:16:44;14.82;;;9.52;;
34960;SDS011;30789;52.030;7.110;2023-01-28T04:19:10;14.45;;;8.93;;
34960;SDS011;30789;52.030;7.110;2023-01-28T04:21:37;15.93;;;8.93;;
34960;SDS011;30789;52.030;7.110;2023-01-28T04:24:05;14.55;;;9.63;;
34960;SDS011;30789;52.030;7.110;2023-01-28T04:26:32;12.27;;;8.15;;
34960;SDS011;30789;52.030;7.110;2023-01-28T04:28:58;13.63;;;8.20;;
34960;SDS011;30789;52.030;7.110;2023-01-28T04:31:24;15.25;;;8.30;;
34960;SDS011;30789;52.030;7.110;2023-01-28T04:33:50;15.07;;;8.50;;
34960;SDS011;30789;52.030;7.110;2023-01-28T04:36:17;12.98;;;7.90;;
34960;SDS011;30789;52.030;7.110;2023-01-28T04:38:43;11.43;;;7.82;;
34960;SDS011;30789;52.030;7.110;2023-01-28T04:41:10;14.65;;;9.20;;
34960;SDS011;30789;52.030;7.110;2023-01-28T04:43:37;13.35;;;8.55;;
34960;SDS011;30789;52.030;7.110;2023-01-28T04:46:03;13.23;;;8.80;;
34960;SDS011;30789;52.030;7.110;2023-01-28T04:48:29;12.32;;;7.95;;
34960;SDS011;30789;52.030;7.110;2023-01-28T04:50:56;16.15;;;9.25;;
34960;SDS011;30789;52.030;7.110;2023-01-28T04:53:22;14.63;;;9.32;;
34960;SDS011;30789;52.030;7.110;2023-01-28T04:55:48;14.70;;;8.93;;
34960;SDS011;30789;52.030;7.110;2023-01-28T04:58:16;12.35;;;7.80;;
34960;SDS011;30789;52.030;7.110;2023-01-28T05:00:42;12.63;;;8.65;;
34960;SDS011;30789;52.030;7.110;2023-01-28T05:03:08;16.00;;;9.90;;
34960;SDS011;30789;52.030;7.110;2023-01-28T05:05:34;13.15;;;9.15;;
34960;SDS011;30789;52.030;7.110;2023-01-28T05:08:01;14.68;;;10.00;;
34960;SDS011;30789;52.030;7.110;2023-01-28T05:10:27;16.50;;;9.85;;
34960;SDS011;30789;52.030;7.110;2023-01-28T05:12:53;16.05;;;9.48;;
34960;SDS011;30789;52.030;7.110;2023-01-28T05:15:21;13.98;;;8.85;;
34960;SDS011;30789;52.030;7.110;2023-01-28T05:17:47;16.40;;;10.00;;
34960;SDS011;30789;52.030;7.110;2023-01-28T05:20:14;15.38;;;9.27;;
34960;SDS011;30789;52.030;7.110;2023-01-28T05:22:40;13.32;;;9.13;;
34960;SDS011;30789;52.030;7.110;2023-01-28T05:25:07;14.98;;;9.48;;
34960;SDS011;30789;52.030;7.110;2023-01-28T05:27:33;16.58;;;9.68;;
34960;SDS011;30789;52.030;7.110;2023-01-28T05:29:59;19.48;;;10.43;;
34960;SDS011;30789;52.030;7.110;2023-01-28T05:32:27;15.85;;;10.32;;
34960;SDS011;30789;52.030;7.110;2023-01-28T05:34:53;15.93;;;9.80;;
34960;SDS011;30789;52.030;7.110;2023-01-28T05:37:20;18.65;;;10.20;;
34960;SDS011;30789;52.030;7.110;2023-01-28T05:39:46;18.80;;;10.45;;
34960;SDS011;30789;52.030;7.110;2023-01-28T05:42:12;17.85;;;11.52;;
34960;SDS011;30789;52.030;7.110;2023-01-28T05:44:39;17.42;;;11.32;;
34960;SDS011;30789;52.030;7.110;2023-01-28T05:47:05;17.23;;;10.35;;
34960;SDS011;30789;52.030;7.110;2023-01-28T05:49:33;16.85;;;9.23;;
34960;SDS011;30789;52.030;7.110;2023-01-28T05:51:59;20.90;;;11.45;;
34960;SDS011;30789;52.030;7.110;2023-01-28T05:54:26;17.00;;;9.43;;
34960;SDS011;30789;52.030;7.110;2023-01-28T05:56:52;17.83;;;10.30;;
34960;SDS011;30789;52.030;7.110;2023-01-28T05:59:19;15.85;;;9.68;;
34960;SDS011;30789;52.030;7.110;2023-01-28T06:01:45;16.65;;;10.18;;
34960;SDS011;30789;52.030;7.110;2023-01-28T06:04:11;20.05;;;11.07;;
34960;SDS011;30789;52.030;7.110;2023-01-28T06:06:39;16.80;;;9.55;;
34960;SDS011;30789;52.030;7.110;2023-01-28T06:09:05;14.75;;;8.85;;
34960;SDS011;30789;52.030;7.110;2023-01-28T06:11:31;13.45;;;9.15;;
34960;SDS011;30789;52.030;7.110;2023-01-28T06:13:58;13.68;;;8.82;;
34960;SDS011;30789;52.030;7.110;2023-01-28T06:16:24;14.60;;;8.95;;
34960;SDS011;30789;52.030;7.110;2023-01-28T06:18:50;16.27;;;9.38;;
34960;SDS011;30789;52.030;7.110;2023-01-28T06:21:17;14.25;;;9.82;;
34960;SDS011;30789;52.030;7.110;2023-01-28T06:23:44;15.75;;;9.65;;
34960;SDS011;30789;52.030;7.110;2023-01-28T06:26:10;14.25;;;9.18;;
34960;SDS011;30789;52.030;7.110;2023-01-28T06:28:37;15.82;;;10.07;;
34960;SDS011;30789;52.030;7.110;2023-01-28T06:31:03;15.82;;;10.18;;
34960;SDS011;30789;52.030;7.110;2023-01-28T06:33:30;15.05;;;9.35;;
34960;SDS011;30789;52.030;7.110;2023-01-28T06:38:48;12.75;;;9.18;;
34960;SDS011;30789;52.030;7.110;2023-01-28T06:41:15;18.17;;;9.63;;
34960;SDS011;30789;52.030;7.110;2023-01-28T06:43:47;17.15;;;9.98;;
34960;SDS011;30789;52.030;7.110;2023-01-28T06:46:13;15.80;;;10.52;;
34960;SDS011;30789;52.030;7.110;2023-01-28T06:48:40;15.05;;;10.18;;
34960;SDS011;30789;52.030;7.110;2023-01-28T06:51:06;15.35;;;9.82;;
34960;SDS011;30789;52.030;7.110;2023-01-28T06:53:32;18.08;;;10.23;;
34960;SDS011;30789;52.030;7.110;2023-01-28T06:56:00;15.65;;;9.93;;
34960;SDS011;30789;52.030;7.110;2023-01-28T06:58:26;16.60;;;10.00;;
34960;SDS011;30789;52.030;7.110;2023-01-28T07:00:52;17.48;;;10.00;;
34960;SDS011;30789;52.030;7.110;2023-01-28T07:03:19;16.75;;;10.05;;
34960;SDS011;30789;52.030;7.110;2023-01-28T07:05:45;16.88;;;10.20;;
34960;SDS011;30789;52.030;7.110;2023-01-28T07:08:11;15.93;;;10.00;;
34960;SDS011;30789;52.030;7.110;2023-01-28T07:10:38;17.67;;;10.75;;
34960;SDS011;30789;52.030;7.110;2023-01-28T07:13:05;17.40;;;11.07;;
34960;SDS011;30789;52.030;7.110;2023-01-28T07:15:32;18.45;;;10.82;;
34960;SDS011;30789;52.030;7.110;2023-01-28T07:17:58;17.33;;;10.63;;
34960;SDS011;30789;52.030;7.110;2023-01-28T07:23:27;17.08;;;10.43;;
34960;SDS011;30789;52.030;7.110;2023-01-28T07:25:54;18.63;;;11.15;;
34960;SDS011;30789;52.030;7.110;2023-01-28T07:28:22;19.15;;;10.45;;
34960;SDS011;30789;52.030;7.110;2023-01-28T07:30:49;18.98;;;11.23;;
34960;SDS011;30789;52.030;7.110;2023-01-28T07:33:15;18.90;;;11.38;;
34960;SDS011;30789;52.030;7.110;2023-01-28T07:35:41;17.70;;;11.48;;
34960;SDS011;30789;52.030;7.110;2023-01-28T07:38:08;15.65;;;10.10;;
34960;SDS011;30789;52.030;7.110;2023-01-28T07:40:34;17.50;;;10.88;;
34960;SDS011;30789;52.030;7.110;2023-01-28T07:43:00;16.88;;;10.60;;
34960;SDS011;30789;52.030;7.110;2023-01-28T07:45:28;16.27;;;10.02;;
34960;SDS011;30789;52.030;7.110;2023-01-28T07:47:56;18.73;;;10.18;;
34960;SDS011;30789;52.030;7.110;2023-01-28T07:50:22;19.58;;;10.88;;
34960;SDS011;30789;52.030;7.110;2023-01-28T07:52:49;19.67;;;10.85;;
34960;SDS011;30789;52.030;7.110;2023-01-28T07:55:15;16.55;;;9.30;;
34960;SDS011;30789;52.030;7.110;2023-01-28T07:57:48;17.17;;;10.68;;
34960;SDS011;30789;52.030;7.110;2023-01-28T08:00:15;16.27;;;10.10;;
34960;SDS011;30789;52.030;7.110;2023-01-28T08:02:43;19.25;;;10.45;;
34960;SDS011;30789;52.030;7.110;2023-01-28T08:05:12;19.70;;;10.45;;
34960;SDS011;30789;52.030;7.110;2023-01-28T08:07:39;18.67;;;11.27;;
34960;SDS011;30789;52.030;7.110;2023-01-28T08:10:06;19.52;;;11.55;;
34960;SDS011;30789;52.030;7.110;2023-01-28T08:12:32;15.60;;;10.20;;
34960;SDS011;30789;52.030;7.110;2023-01-28T08:14:58;18.15;;;10.82;;
34960;SDS011;30789;52.030;7.110;2023-01-28T08:17:26;20.77;;;11.05;;
34960;SDS011;30789;52.030;7.110;2023-01-28T08:19:54;17.42;;;10.07;;
34960;SDS011;30789;52.030;7.110;2023-01-28T08:22:23;17.13;;;10.38;;
34960;SDS011;30789;52.030;7.110;2023-01-28T08:24:49;19.55;;;11.05;;
34960;SDS011;30789;52.030;7.110;2023-01-28T08:27:15;18.60;;;10.90;;
34960;SDS011;30789;52.030;7.110;2023-01-28T08:29:43;16.75;;;10.02;;
34960;SDS011;30789;52.030;7.110;2023-01-28T08:32:09;17.92;;;10.25;;
34960;SDS011;30789;52.030;7.110;2023-01-28T08:34:36;17.25;;;10.82;;
34960;SDS011;30789;52.030;7.110;2023-01-28T08:37:03;16.90;;;10.82;;
34960;SDS011;30789;52.030;7.110;2023-01-28T08:39:30;20.58;;;12.20;;
34960;SDS011;30789;52.030;7.110;2023-01-28T08:41:56;17.55;;;12.18;;
34960;SDS011;30789;52.030;7.110;2023-01-28T08:44:23;16.95;;;11.10;;
34960;SDS011;30789;52.030;7.110;2023-01-28T08:46:49;18.23;;;11.77;;
34960;SDS011;30789;52.030;7.110;2023-01-28T08:49:15;19.67;;;10.70;;
34960;SDS011;30789;52.030;7.110;2023-01-28T08:51:41;19.27;;;11.95;;
34960;SDS011;30789;52.030;7.110;2023-01-28T08:54:09;21.60;;;13.23;;
34960;SDS011;30789;52.030;7.110;2023-01-28T08:56:35;22.48;;;13.35;;
34960;SDS011;30789;52.030;7.110;2023-01-28T08:59:03;18.67;;;11.88;;
34960;SDS011;30789;52.030;7.110;2023-01-28T09:01:29;19.92;;;12.85;;
34960;SDS011;30789;52.030;7.110;2023-01-28T09:03:55;20.58;;;13.07;;
34960;SDS011;30789;52.030;7.110;2023-01-28T09:06:21;22.95;;;13.50;;
34960;SDS011;30789;52.030;7.110;2023-01-28T09:08:48;19.10;;;11.80;;
34960;SDS011;30789;52.030;7.110;2023-01-28T09:11:15;17.00;;;10.50;;
34960;SDS011;30789;52.030;7.110;2023-01-28T09:13:41;19.63;;;12.00;;
34960;SDS011;30789;52.030;7.110;2023-01-28T09:16:08;19.13;;;11.82;;
34960;SDS011;30789;52.030;7.110;2023-01-28T09:18:34;20.25;;;13.73;;
34960;SDS011;30789;52.030;7.110;2023-01-28T09:21:03;20.48;;;11.75;;
34960;SDS011;30789;52.030;7.110;2023-01-28T09:23:29;17.23;;;11.52;;
34960;SDS011;30789;52.030;7.110;2023-01-28T09:25:58;21.27;;;13.25;;
34960;SDS011;30789;52.030;7.110;2023-01-28T09:28:26;18.83;;;12.35;;
34960;SDS011;30789;52.030;7.110;2023-01-28T09:30:59;20.13;;;13.23;;
34960;SDS011;30789;52.030;7.110;2023-01-28T09:33:25;22.77;;;13.32;;
34960;SDS011;30789;52.030;7.110;2023-01-28T09:35:51;21.52;;;12.85;;
34960;SDS011;30789;52.030;7.110;2023-01-28T09:38:17;21.70;;;12.40;;
34960;SDS011;30789;52.030;7.110;2023-01-28T09:40:44;24.42;;;13.85;;
34960;SDS011;30789;52.030;7.110;2023-01-28T09:43:25;26.40;;;16.40;;
34960;SDS011;30789;52.030;7.110;2023-01-28T09:45:59;23.13;;;13.68;;
34960;SDS011;30789;52.030;7.110;2023-01-28T09:48:28;21.83;;;13.05;;
34960;SDS011;30789;52.030;7.110;2023-01-28T09:50:57;29.05;;;15.05;;
34960;SDS011;30789;52.030;7.110;2023-01-28T09:53:24;27.45;;;15.30;;
34960;SDS011;30789;52.030;7.110;2023-01-28T09:55:52;26.15;;;15.93;;
34960;SDS011;30789;52.030;7.110;2023-01-28T09:58:19;26.00;;;16.13;;
34960;SDS011;30789;52.030;7.110;2023-01-28T10:00:49;28.70;;;15.43;;
34960;SDS011;30789;52.030;7.110;2023-01-28T10:03:27;26.88;;;16.38;;
34960;SDS011;30789;52.030;7.110;2023-01-28T10:05:57;26.17;;;15.88;;
34960;SDS011;30789;52.030;7.110;2023-01-28T10:08:30;27.38;;;15.68;;
34960;SDS011;30789;52.030;7.110;2023-01-28T10:11:04;22.17;;;14.00;;
34960;SDS011;30789;52.030;7.110;2023-01-28T10:13:33;23.73;;;14.20;;
34960;SDS011;30789;52.030;7.110;2023-01-28T10:16:12;25.58;;;15.60;;
34960;SDS011;30789;52.030;7.110;2023-01-28T10:18:42;22.55;;;14.02;;
34960;SDS011;30789;52.030;7.110;2023-01-28T10:21:11;24.45;;;14.18;;
34960;SDS011;30789;52.030;7.110;2023-01-28T10:23:43;20.92;;;13.45;;
34960;SDS011;30789;52.030;7.110;2023-01-28T10:26:14;22.90;;;13.15;;
34960;SDS011;30789;52.030;7.110;2023-01-28T10:28:41;20.77;;;13.10;;
34960;SDS011;30789;52.030;7.110;2023-01-28T10:31:10;21.27;;;13.35;;
34960;SDS011;30789;52.030;7.110;2023-01-28T10:33:37;22.15;;;13.60;;
34960;SDS011;30789;52.030;7.110;2023-01-28T10:36:07;19.73;;;12.48;;
34960;SDS011;30789;52.030;7.110;2023-01-28T10:38:34;18.63;;;12.55;;
34960;SDS011;30789;52.030;7.110;2023-01-28T10:41:01;19.40;;;12.68;;
34960;SDS011;30789;52.030;7.110;2023-01-28T10:43:29;22.35;;;14.00;;
34960;SDS011;30789;52.030;7.110;2023-01-28T10:45:56;18.38;;;11.60;;
34960;SDS011;30789;52.030;7.110;2023-01-28T10:48:25;15.20;;;10.55;;
34960;SDS011;30789;52.030;7.110;2023-01-28T10:50:54;16.38;;;10.52;;
34960;SDS011;30789;52.030;7.110;2023-01-28T10:53:33;15.00;;;9.82;;
34960;SDS011;30789;52.030;7.110;2023-01-28T10:56:00;13.10;;;8.98;;
34960;SDS011;30789;52.030;7.110;2023-01-28T10:58:28;17.15;;;10.05;;
34960;SDS011;30789;52.030;7.110;2023-01-28T11:00:55;14.60;;;9.95;;
34960;SDS011;30789;52.030;7.110;2023-01-28T11:03:22;16.85;;;10.73;;
34960;SDS011;30789;52.030;7.110;2023-01-28T11:05:51;12.77;;;8.73;;
34960;SDS011;30789;52.030;7.110;2023-01-28T11:08:18;13.30;;;8.13;;
34960;SDS011;30789;52.030;7.110;2023-01-28T11:10:46;9.60;;;7.28;;
34960;SDS011;30789;52.030;7.110;2023-01-28T11:13:16;11.75;;;8.68;;
34960;SDS011;30789;52.030;7.110;2023-01-28T11:15:46;12.98;;;8.50;;
34960;SDS011;30789;52.030;7.110;2023-01-28T11:18:14;9.68;;;7.32;;
34960;SDS011;30789;52.030;7.110;2023-01-28T11:20:42;9.80;;;6.70;;
34960;SDS011;30789;52.030;7.110;2023-01-28T11:23:17;9.88;;;6.55;;
34960;SDS011;30789;52.030;7.110;2023-01-28T11:25:43;12.10;;;7.97;;
34960;SDS011;30789;52.030;7.110;2023-01-28T11:28:14;10.32;;;7.35;;
34960;SDS011;30789;52.030;7.110;2023-01-28T11:30:42;12.05;;;7.97;;
34960;SDS011;30789;52.030;7.110;2023-01-28T11:33:13;11.48;;;6.97;;
34960;SDS011;30789;52.030;7.110;2023-01-28T11:35:41;10.02;;;6.95;;
34960;SDS011;30789;52.030;7.110;2023-01-28T11:38:13;13.35;;;7.93;;
34960;SDS011;30789;52.030;7.110;2023-01-28T11:40:48;12.68;;;7.13;;
34960;SDS011;30789;52.030;7.110;2023-01-28T11:43:15;7.82;;;6.22;;
34960;SDS011;30789;52.030;7.110;2023-01-28T11:45:42;9.45;;;7.10;;
34960;SDS011;30789;52.030;7.110;2023-01-28T11:48:17;7.80;;;5.70;;
34960;SDS011;30789;52.030;7.110;2023-01-28T11:50:47;9.43;;;6.95;;
34960;SDS011;30789;52.030;7.110;2023-01-28T11:53:19;6.68;;;5.90;;
34960;SDS011;30789;52.030;7.110;2023-01-28T11:55:57;9.63;;;6.15;;
34960;SDS011;30789;52.030;7.110;2023-01-28T11:58:27;9.30;;;6.85;;
34960;SDS011;30789;52.030;7.110;2023-01-28T12:01:02;9.43;;;7.00;;
34960;SDS011;30789;52.030;7.110;2023-01-28T12:03:33;10.05;;;7.15;;
34960;SDS011;30789;52.030;7.110;2023-01-28T12:06:10;9.32;;;6.60;;
34960;SDS011;30789;52.030;7.110;2023-01-28T12:08:39;7.57;;;5.95;;
34960;SDS011;30789;52.030;7.110;2023-01-28T12:11:09;6.70;;;5.80;;
34960;SDS011;30789;52.030;7.110;2023-01-28T12:16:29;7.28;;;5.88;;
34960;SDS011;30789;52.030;7.110;2023-01-28T12:19:10;6.70;;;5.90;;
34960;SDS011;30789;52.030;7.110;2023-01-28T12:21:44;7.25;;;5.50;;
34960;SDS011;30789;52.030;7.110;2023-01-28T12:24:16;6.85;;;4.78;;
34960;SDS011;30789;52.030;7.110;2023-01-28T12:26:47;8.35;;;5.43;;
34960;SDS011;30789;52.030;7.110;2023-01-28T12:29:17;9.13;;;5.68;;
34960;SDS011;30789;52.030;7.110;2023-01-28T12:31:59;9.50;;;5.47;;
34960;SDS011;30789;52.030;7.110;2023-01-28T12:34:45;8.65;;;6.40;;
34960;SDS011;30789;52.030;7.110;2023-01-28T12:37:19;8.18;;;6.60;;
34960;SDS011;30789;52.030;7.110;2023-01-28T12:39:51;9.80;;;7.03;;
34960;SDS011;30789;52.030;7.110;2023-01-28T12:42:25;11.25;;;9.18;;
34960;SDS011;30789;52.030;7.110;2023-01-28T12:44:53;10.90;;;7.63;;
34960;SDS011;30789;52.030;7.110;2023-01-28T12:47:25;11.02;;;8.27;;
34960;SDS011;30789;52.030;7.110;2023-01-28T12:49:54;6.33;;;5.67;;
34960;SDS011;30789;52.030;7.110;2023-01-28T12:52:23;9.65;;;7.05;;
34960;SDS011;30789;52.030;7.110;2023-01-28T12:54:52;8.82;;;6.22;;
34960;SDS011;30789;52.030;7.110;2023-01-28T12:57:21;10.40;;;7.07;;
34960;SDS011;30789;52.030;7.110;2023-01-28T12:59:48;13.60;;;8.70;;
34960;SDS011;30789;52.030;7.110;2023-01-28T13:02:20;10.23;;;7.40;;
34960;SDS011;30789;52.030;7.110;2023-01-28T13:04:53;11.27;;;7.15;;
34960;SDS011;30789;52.030;7.110;2023-01-28T13:07:22;12.73;;;7.78;;
34960;SDS011;30789;52.030;7.110;2023-01-28T13:09:51;7.93;;;6.65;;
34960;SDS011;30789;52.030;7.110;2023-01-28T13:12:18;9.63;;;7.10;;
34960;SDS011;30789;52.030;7.110;2023-01-28T13:14:46;8.10;;;6.43;;
34960;SDS011;30789;52.030;7.110;2023-01-28T13:17:23;10.93;;;6.85;;
34960;SDS011;30789;52.030;7.110;2023-01-28T13:19:51;13.68;;;9.27;;
34960;SDS011;30789;52.030;7.110;2023-01-28T13:22:28;11.68;;;6.82;;
34960;SDS011;30789;52.030;7.110;2023-01-28T13:24:54;10.75;;;7.68;;
34960;SDS011;30789;52.030;7.110;2023-01-28T13:27:22;9.07;;;6.80;;
34960;SDS011;30789;52.030;7.110;2023-01-28T13:29:58;18.25;;;11.07;;
34960;SDS011;30789;52.030;7.110;2023-01-28T13:32:26;37.88;;;21.38;;
34960;SDS011;30789;52.030;7.110;2023-01-28T13:34:57;13.68;;;9.48;;
34960;SDS011;30789;52.030;7.110;2023-01-28T13:37:27;12.07;;;7.35;;
34960;SDS011;30789;52.030;7.110;2023-01-28T13:39:55;9.13;;;6.10;;
34960;SDS011;30789;52.030;7.110;2023-01-28T13:42:24;9.55;;;5.88;;
34960;SDS011;30789;52.030;7.110;2023-01-28T13:44:51;12.55;;;7.85;;
34960;SDS011;30789;52.030;7.110;2023-01-28T13:47:26;16.02;;;8.55;;
34960;SDS011;30789;52.030;7.110;2023-01-28T13:49:55;12.10;;;7.97;;
34960;SDS011;30789;52.030;7.110;2023-01-28T13:52:25;11.15;;;6.30;;
34960;SDS011;30789;52.030;7.110;2023-01-28T13:54:54;13.50;;;7.20;;
34960;SDS011;30789;52.030;7.110;2023-01-28T14:00:07;8.60;;;6.53;;
34960;SDS011;30789;52.030;7.110;2023-01-28T14:05:27;9.90;;;6.93;;
34960;SDS011;30789;52.030;7.110;2023-01-28T14:08:16;13.32;;;8.52;;
34960;SDS011;30789;52.030;7.110;2023-01-28T14:10:50;12.63;;;8.83;;
34960;SDS011;30789;52.030;7.110;2023-01-28T14:16:16;10.63;;;8.02;;
34960;SDS011;30789;52.030;7.110;2023-01-28T14:18:46;10.32;;;7.85;;
34960;SDS011;30789;52.030;7.110;2023-01-28T14:21:14;14.57;;;9.45;;
34960;SDS011;30789;52.030;7.110;2023-01-28T14:23:44;21.60;;;14.68;;
34960;SDS011;30789;52.030;7.110;2023-01-28T14:26:15;14.45;;;8.57;;
34960;SDS011;30789;52.030;7.110;2023-01-28T14:28:45;11.45;;;6.55;;
34960;SDS011;30789;52.030;7.110;2023-01-28T14:31:15;8.55;;;6.13;;
34960;SDS011;30789;52.030;7.110;2023-01-28T14:33:43;38.55;;;25.95;;
34960;SDS011;30789;52.030;7.110;2023-01-28T14:36:10;12.88;;;9.20;;
34960;SDS011;30789;52.030;7.110;2023-01-28T14:38:37;11.65;;;8.07;;
34960;SDS011;30789;52.030;7.110;2023-01-28T14:41:05;13.55;;;9.02;;
34960;SDS011;30789;52.030;7.110;2023-01-28T14:43:32;9.23;;;6.63;;
34960;SDS011;30789;52.030;7.110;2023-01-28T14:46:03;11.55;;;7.95;;
34960;SDS011;30789;52.030;7.110;2023-01-28T14:48:34;30.73;;;18.65;;
34960;SDS011;30789;52.030;7.110;2023-01-28T14:51:06;26.40;;;15.85;;
34960;SDS011;30789;52.030;7.110;2023-01-28T14:53:45;15.50;;;9.40;;
34960;SDS011;30789;52.030;7.110;2023-01-28T14:56:17;12.40;;;8.25;;